sensor_id;sensor_type;location;lat;lon;timestamp;temperature;humidity
48535;DHT22;34323;52.022;5.686;2023-07-28T00:00:07;23.40;99.90
48535;DHT22;34323;52.022;5.686;2023-07-28T00:02:33;23.20;99.90
48535;DHT22;34323;52.022;5.686;2023-07-28T00:04:59;23.20;99.90
48535;DHT22;34323;52.022;5.686;2023-07-28T00:07:24;23.00;99.90
48535;DHT22;34323;52.022;5.686;2023-07-28T00:09:50;22.70;99.90
48535;DHT22;34323;52.022;5.686;2023-07-28T00:12:15;22.60;99.90
48535;DHT22;34323;52.022;5.686;2023-07-28T00:14:41;22.60;99.90
48535;DHT22;34323;52.022;5.686;2023-07-28T00:17:06;23.00;99.90
48535;DHT22;34323;52.022;5.686;2023-07-28T00:19:32;23.20;99.90
48535;DHT22;34323;52.022;5.686;2023-07-28T00:21:57;23.40;99.90
48535;DHT22;34323;52.022;5.686;2023-07-28T00:24:23;22.90;99.90
48535;DHT22;34323;52.022;5.686;2023-07-28T00:26:49;22.50;99.90
48535;DHT22;34323;52.022;5.686;2023-07-28T00:29:14;22.20;99.90
48535;DHT22;34323;52.022;5.686;2023-07-28T00:31:40;22.40;99.90
48535;DHT22;34323;52.022;5.686;2023-07-28T00:34:05;22.70;99.90
48535;DHT22;34323;52.022;5.686;2023-07-28T00:36:31;22.80;99.90
48535;DHT22;34323;52.022;5.686;2023-07-28T00:38:57;23.00;99.90
48535;DHT22;34323;52.022;5.686;2023-07-28T00:41:23;23.30;99.90
48535;DHT22;34323;52.022;5.686;2023-07-28T00:43:49;23.50;99.90
48535;DHT22;34323;52.022;5.686;2023-07-28T00:46:15;23.40;99.90
48535;DHT22;34323;52.022;5.686;2023-07-28T00:48:41;23.50;99.90
48535;DHT22;34323;52.022;5.686;2023-07-28T00:51:10;23.40;99.90
48535;DHT22;34323;52.022;5.686;2023-07-28T00:53:37;23.10;99.90
48535;DHT22;34323;52.022;5.686;2023-07-28T00:56:03;23.00;99.90
48535;DHT22;34323;52.022;5.686;2023-07-28T00:58:29;22.80;99.90
48535;DHT22;34323;52.022;5.686;2023-07-28T01:00:55;22.90;99.90
48535;DHT22;34323;52.022;5.686;2023-07-28T01:03:22;23.30;99.90
48535;DHT22;34323;52.022;5.686;2023-07-28T01:06:13;23.30;99.90
48535;DHT22;34323;52.022;5.686;2023-07-28T01:08:53;23.40;99.90
48535;DHT22;34323;52.022;5.686;2023-07-28T01:11:21;23.50;99.90
48535;DHT22;34323;52.022;5.686;2023-07-28T01:13:47;23.80;99.90
48535;DHT22;34323;52.022;5.686;2023-07-28T01:16:13;23.90;99.90
48535;DHT22;34323;52.022;5.686;2023-07-28T01:18:38;23.70;99.90
48535;DHT22;34323;52.022;5.686;2023-07-28T01:21:08;23.50;99.90
48535;DHT22;34323;52.022;5.686;2023-07-28T01:24:01;23.40;99.90
48535;DHT22;34323;52.022;5.686;2023-07-28T01:26:35;23.10;99.90
48535;DHT22;34323;52.022;5.686;2023-07-28T01:29:02;23.10;99.90
48535;DHT22;34323;52.022;5.686;2023-07-28T01:31:29;23.30;99.90
48535;DHT22;34323;52.022;5.686;2023-07-28T01:33:54;23.50;99.90
48535;DHT22;34323;52.022;5.686;2023-07-28T01:36:20;23.50;99.90
48535;DHT22;34323;52.022;5.686;2023-07-28T01:38:45;23.50;99.90
48535;DHT22;34323;52.022;5.686;2023-07-28T01:41:11;23.50;99.90
48535;DHT22;34323;52.022;5.686;2023-07-28T01:43:37;23.30;99.90
48535;DHT22;34323;52.022;5.686;2023-07-28T01:46:02;23.10;99.90
48535;DHT22;34323;52.022;5.686;2023-07-28T01:48:28;23.20;99.90
48535;DHT22;34323;52.022;5.686;2023-07-28T01:50:53;23.20;99.90
48535;DHT22;34323;52.022;5.686;2023-07-28T01:53:19;23.50;99.90
48535;DHT22;34323;52.022;5.686;2023-07-28T01:55:45;23.70;99.90
48535;DHT22;34323;52.022;5.686;2023-07-28T01:58:11;23.80;99.90
48535;DHT22;34323;52.022;5.686;2023-07-28T02:00:36;23.60;99.90
48535;DHT22;34323;52.022;5.686;2023-07-28T02:03:02;23.30;99.90
48535;DHT22;34323;52.022;5.686;2023-07-28T02:05:29;23.10;99.90
48535;DHT22;34323;52.022;5.686;2023-07-28T02:07:55;23.00;99.90
48535;DHT22;34323;52.022;5.686;2023-07-28T02:10:22;23.10;99.90
48535;DHT22;34323;52.022;5.686;2023-07-28T02:12:49;23.20;99.90
48535;DHT22;34323;52.022;5.686;2023-07-28T02:15:14;23.30;99.90
48535;DHT22;34323;52.022;5.686;2023-07-28T02:17:40;23.40;99.90
48535;DHT22;34323;52.022;5.686;2023-07-28T02:20:06;23.40;99.90
48535;DHT22;34323;52.022;5.686;2023-07-28T02:22:32;23.50;99.90
48535;DHT22;34323;52.022;5.686;2023-07-28T02:24:58;23.50;99.90
48535;DHT22;34323;52.022;5.686;2023-07-28T02:27:27;23.70;99.90
48535;DHT22;34323;52.022;5.686;2023-07-28T02:29:53;23.60;99.90
48535;DHT22;34323;52.022;5.686;2023-07-28T02:32:18;23.50;99.90
48535;DHT22;34323;52.022;5.686;2023-07-28T02:34:44;23.80;99.90
48535;DHT22;34323;52.022;5.686;2023-07-28T02:37:09;24.00;99.90
48535;DHT22;34323;52.022;5.686;2023-07-28T02:39:35;23.90;99.90
48535;DHT22;34323;52.022;5.686;2023-07-28T02:42:01;24.20;99.90
48535;DHT22;34323;52.022;5.686;2023-07-28T02:44:26;24.20;99.90
48535;DHT22;34323;52.022;5.686;2023-07-28T02:46:52;24.00;99.90
48535;DHT22;34323;52.022;5.686;2023-07-28T02:49:18;24.00;99.90
48535;DHT22;34323;52.022;5.686;2023-07-28T02:51:43;23.70;99.90
48535;DHT22;34323;52.022;5.686;2023-07-28T02:54:09;23.70;99.90
48535;DHT22;34323;52.022;5.686;2023-07-28T02:56:34;23.80;99.90
48535;DHT22;34323;52.022;5.686;2023-07-28T02:59:03;23.80;99.90
48535;DHT22;34323;52.022;5.686;2023-07-28T03:01:32;23.60;99.90
48535;DHT22;34323;52.022;5.686;2023-07-28T03:04:00;23.70;99.90
48535;DHT22;34323;52.022;5.686;2023-07-28T03:06:25;23.80;99.90
48535;DHT22;34323;52.022;5.686;2023-07-28T03:08:51;23.80;99.90
48535;DHT22;34323;52.022;5.686;2023-07-28T03:11:16;23.80;99.90
48535;DHT22;34323;52.022;5.686;2023-07-28T03:13:42;23.60;99.90
48535;DHT22;34323;52.022;5.686;2023-07-28T03:16:08;23.50;99.90
48535;DHT22;34323;52.022;5.686;2023-07-28T03:18:33;23.40;99.90
48535;DHT22;34323;52.022;5.686;2023-07-28T03:20:59;23.50;99.90
48535;DHT22;34323;52.022;5.686;2023-07-28T03:23:24;23.70;99.90
48535;DHT22;34323;52.022;5.686;2023-07-28T03:25:50;23.70;99.90
48535;DHT22;34323;52.022;5.686;2023-07-28T03:28:15;23.80;99.90
48535;DHT22;34323;52.022;5.686;2023-07-28T03:30:41;24.10;99.90
48535;DHT22;34323;52.022;5.686;2023-07-28T03:33:06;24.00;99.90
48535;DHT22;34323;52.022;5.686;2023-07-28T03:35:32;24.00;99.90
48535;DHT22;34323;52.022;5.686;2023-07-28T03:37:58;24.00;99.90
48535;DHT22;34323;52.022;5.686;2023-07-28T03:40:23;23.90;99.90
48535;DHT22;34323;52.022;5.686;2023-07-28T03:42:49;23.80;99.90
48535;DHT22;34323;52.022;5.686;2023-07-28T03:45:15;23.90;99.90
48535;DHT22;34323;52.022;5.686;2023-07-28T03:47:40;23.90;99.90
48535;DHT22;34323;52.022;5.686;2023-07-28T03:50:06;24.00;99.90
48535;DHT22;34323;52.022;5.686;2023-07-28T03:52:32;24.10;99.90
48535;DHT22;34323;52.022;5.686;2023-07-28T03:54:57;24.20;99.90
48535;DHT22;34323;52.022;5.686;2023-07-28T03:57:23;24.20;99.90
48535;DHT22;34323;52.022;5.686;2023-07-28T03:59:48;24.10;99.90
48535;DHT22;34323;52.022;5.686;2023-07-28T04:02:14;24.20;99.90
48535;DHT22;34323;52.022;5.686;2023-07-28T04:04:39;24.10;99.90
48535;DHT22;34323;52.022;5.686;2023-07-28T04:07:05;24.00;99.90
48535;DHT22;34323;52.022;5.686;2023-07-28T04:09:31;24.10;99.90
48535;DHT22;34323;52.022;5.686;2023-07-28T04:11:56;24.00;99.90
48535;DHT22;34323;52.022;5.686;2023-07-28T04:14:22;24.20;99.90
48535;DHT22;34323;52.022;5.686;2023-07-28T04:16:47;24.10;99.90
48535;DHT22;34323;52.022;5.686;2023-07-28T04:19:13;24.20;99.90
48535;DHT22;34323;52.022;5.686;2023-07-28T04:21:39;24.20;99.90
48535;DHT22;34323;52.022;5.686;2023-07-28T04:24:07;24.10;99.90
48535;DHT22;34323;52.022;5.686;2023-07-28T04:26:33;24.20;99.90
48535;DHT22;34323;52.022;5.686;2023-07-28T04:28:59;24.10;99.90
48535;DHT22;34323;52.022;5.686;2023-07-28T04:31:25;23.80;99.90
48535;DHT22;34323;52.022;5.686;2023-07-28T04:33:51;23.80;99.90
48535;DHT22;34323;52.022;5.686;2023-07-28T04:36:16;24.00;99.90
48535;DHT22;34323;52.022;5.686;2023-07-28T04:38:42;24.00;99.90
48535;DHT22;34323;52.022;5.686;2023-07-28T04:41:08;23.80;99.90
48535;DHT22;34323;52.022;5.686;2023-07-28T04:43:33;24.00;99.90
48535;DHT22;34323;52.022;5.686;2023-07-28T04:45:59;23.90;99.90
48535;DHT22;34323;52.022;5.686;2023-07-28T04:48:24;23.90;99.90
48535;DHT22;34323;52.022;5.686;2023-07-28T04:50:50;24.00;99.90
48535;DHT22;34323;52.022;5.686;2023-07-28T04:53:15;24.00;99.90
48535;DHT22;34323;52.022;5.686;2023-07-28T04:55:41;24.10;99.90
48535;DHT22;34323;52.022;5.686;2023-07-28T04:58:06;24.10;99.90
48535;DHT22;34323;52.022;5.686;2023-07-28T05:00:32;24.00;99.90
48535;DHT22;34323;52.022;5.686;2023-07-28T05:02:58;24.20;99.90
48535;DHT22;34323;52.022;5.686;2023-07-28T05:05:23;24.40;99.90
48535;DHT22;34323;52.022;5.686;2023-07-28T05:07:49;24.40;99.90
48535;DHT22;34323;52.022;5.686;2023-07-28T05:10:14;24.50;99.90
48535;DHT22;34323;52.022;5.686;2023-07-28T05:12:40;24.50;99.90
48535;DHT22;34323;52.022;5.686;2023-07-28T05:15:06;24.20;99.90
48535;DHT22;34323;52.022;5.686;2023-07-28T05:17:36;24.10;99.90
48535;DHT22;34323;52.022;5.686;2023-07-28T05:20:02;24.10;99.90
48535;DHT22;34323;52.022;5.686;2023-07-28T05:22:27;24.30;99.90
48535;DHT22;34323;52.022;5.686;2023-07-28T05:24:53;24.00;99.90
48535;DHT22;34323;52.022;5.686;2023-07-28T05:27:19;23.80;99.90
48535;DHT22;34323;52.022;5.686;2023-07-28T05:29:44;23.90;99.90
48535;DHT22;34323;52.022;5.686;2023-07-28T05:32:10;23.80;99.90
48535;DHT22;34323;52.022;5.686;2023-07-28T05:34:35;23.90;99.90
48535;DHT22;34323;52.022;5.686;2023-07-28T05:37:01;23.90;99.90
48535;DHT22;34323;52.022;5.686;2023-07-28T05:39:27;23.80;99.90
48535;DHT22;34323;52.022;5.686;2023-07-28T05:41:52;23.80;99.90
48535;DHT22;34323;52.022;5.686;2023-07-28T05:44:18;23.90;99.90
48535;DHT22;34323;52.022;5.686;2023-07-28T05:46:43;23.90;99.90
48535;DHT22;34323;52.022;5.686;2023-07-28T05:49:09;23.80;99.90
48535;DHT22;34323;52.022;5.686;2023-07-28T05:51:35;23.80;99.90
48535;DHT22;34323;52.022;5.686;2023-07-28T05:54:00;23.70;99.90
48535;DHT22;34323;52.022;5.686;2023-07-28T05:56:26;24.10;99.90
48535;DHT22;34323;52.022;5.686;2023-07-28T05:58:52;24.20;99.90
48535;DHT22;34323;52.022;5.686;2023-07-28T06:01:17;24.10;99.90
48535;DHT22;34323;52.022;5.686;2023-07-28T06:03:44;23.60;99.90
48535;DHT22;34323;52.022;5.686;2023-07-28T06:06:09;23.70;99.90
48535;DHT22;34323;52.022;5.686;2023-07-28T06:08:35;24.00;99.90
48535;DHT22;34323;52.022;5.686;2023-07-28T06:11:06;24.00;99.90
48535;DHT22;34323;52.022;5.686;2023-07-28T06:13:32;23.90;99.90
48535;DHT22;34323;52.022;5.686;2023-07-28T06:15:58;23.80;99.90
48535;DHT22;34323;52.022;5.686;2023-07-28T06:18:25;24.00;99.90
48535;DHT22;34323;52.022;5.686;2023-07-28T06:20:50;23.90;99.90
48535;DHT22;34323;52.022;5.686;2023-07-28T06:23:16;24.00;99.90
48535;DHT22;34323;52.022;5.686;2023-07-28T06:25:42;24.10;99.90
48535;DHT22;34323;52.022;5.686;2023-07-28T06:28:12;23.70;99.90
48535;DHT22;34323;52.022;5.686;2023-07-28T06:30:38;23.80;99.90
48535;DHT22;34323;52.022;5.686;2023-07-28T06:33:06;24.00;99.90
48535;DHT22;34323;52.022;5.686;2023-07-28T06:35:32;24.00;99.90
48535;DHT22;34323;52.022;5.686;2023-07-28T06:40:25;24.00;99.90
48535;DHT22;34323;52.022;5.686;2023-07-28T06:42:50;23.80;99.90
48535;DHT22;34323;52.022;5.686;2023-07-28T06:45:16;23.70;99.90
48535;DHT22;34323;52.022;5.686;2023-07-28T06:47:42;23.50;99.90
48535;DHT22;34323;52.022;5.686;2023-07-28T06:50:08;23.70;99.90
48535;DHT22;34323;52.022;5.686;2023-07-28T06:52:34;23.40;99.90
48535;DHT22;34323;52.022;5.686;2023-07-28T06:54:59;23.40;99.90
48535;DHT22;34323;52.022;5.686;2023-07-28T06:57:25;23.60;99.90
48535;DHT22;34323;52.022;5.686;2023-07-28T06:59:50;23.70;99.90
48535;DHT22;34323;52.022;5.686;2023-07-28T07:02:16;23.30;99.90
48535;DHT22;34323;52.022;5.686;2023-07-28T07:04:42;23.10;99.90
48535;DHT22;34323;52.022;5.686;2023-07-28T07:07:08;23.40;99.90
48535;DHT22;34323;52.022;5.686;2023-07-28T07:09:33;23.60;99.90
48535;DHT22;34323;52.022;5.686;2023-07-28T07:12:00;23.80;99.90
48535;DHT22;34323;52.022;5.686;2023-07-28T07:14:25;24.00;99.90
48535;DHT22;34323;52.022;5.686;2023-07-28T07:16:51;24.30;99.90
48535;DHT22;34323;52.022;5.686;2023-07-28T07:19:16;24.30;99.90
48535;DHT22;34323;52.022;5.686;2023-07-28T07:21:42;24.20;99.90
48535;DHT22;34323;52.022;5.686;2023-07-28T07:24:10;24.20;99.90
48535;DHT22;34323;52.022;5.686;2023-07-28T07:26:35;24.00;99.90
48535;DHT22;34323;52.022;5.686;2023-07-28T07:29:01;24.10;99.90
48535;DHT22;34323;52.022;5.686;2023-07-28T07:31:26;24.00;99.90
48535;DHT22;34323;52.022;5.686;2023-07-28T07:33:52;24.20;99.90
48535;DHT22;34323;52.022;5.686;2023-07-28T07:36:19;24.20;99.90
48535;DHT22;34323;52.022;5.686;2023-07-28T07:38:45;24.20;99.90
48535;DHT22;34323;52.022;5.686;2023-07-28T07:41:17;24.40;99.90
48535;DHT22;34323;52.022;5.686;2023-07-28T07:43:45;24.60;99.90
48535;DHT22;34323;52.022;5.686;2023-07-28T07:46:12;24.30;99.90
48535;DHT22;34323;52.022;5.686;2023-07-28T07:48:37;24.30;99.90
48535;DHT22;34323;52.022;5.686;2023-07-28T07:51:03;24.30;99.90
48535;DHT22;34323;52.022;5.686;2023-07-28T07:53:29;23.90;99.90
48535;DHT22;34323;52.022;5.686;2023-07-28T07:55:54;23.90;99.90
48535;DHT22;34323;52.022;5.686;2023-07-28T07:58:20;24.30;99.90
48535;DHT22;34323;52.022;5.686;2023-07-28T08:00:46;24.50;99.90
48535;DHT22;34323;52.022;5.686;2023-07-28T08:03:11;24.50;99.90
48535;DHT22;34323;52.022;5.686;2023-07-28T08:05:37;24.20;99.90
48535;DHT22;34323;52.022;5.686;2023-07-28T08:08:03;23.90;99.90
48535;DHT22;34323;52.022;5.686;2023-07-28T08:10:28;24.00;99.90
48535;DHT22;34323;52.022;5.686;2023-07-28T08:12:55;24.20;99.90
48535;DHT22;34323;52.022;5.686;2023-07-28T08:15:21;24.40;99.90
48535;DHT22;34323;52.022;5.686;2023-07-28T08:17:46;24.40;99.90
48535;DHT22;34323;52.022;5.686;2023-07-28T08:20:12;24.40;99.90
48535;DHT22;34323;52.022;5.686;2023-07-28T08:22:38;23.90;99.90
48535;DHT22;34323;52.022;5.686;2023-07-28T08:25:04;24.00;99.90
48535;DHT22;34323;52.022;5.686;2023-07-28T08:27:30;23.80;99.90
48535;DHT22;34323;52.022;5.686;2023-07-28T08:29:56;23.90;99.90
48535;DHT22;34323;52.022;5.686;2023-07-28T08:32:21;23.80;99.90
48535;DHT22;34323;52.022;5.686;2023-07-28T08:34:47;23.80;99.90
48535;DHT22;34323;52.022;5.686;2023-07-28T08:37:13;23.70;99.90
48535;DHT22;34323;52.022;5.686;2023-07-28T08:39:39;23.80;99.90
48535;DHT22;34323;52.022;5.686;2023-07-28T08:42:05;23.90;99.90
48535;DHT22;34323;52.022;5.686;2023-07-28T08:44:31;23.70;99.90
48535;DHT22;34323;52.022;5.686;2023-07-28T08:47:02;23.90;99.90
48535;DHT22;34323;52.022;5.686;2023-07-28T08:49:28;24.20;99.90
48535;DHT22;34323;52.022;5.686;2023-07-28T08:52:00;24.70;99.90
48535;DHT22;34323;52.022;5.686;2023-07-28T08:54:26;24.60;99.90
48535;DHT22;34323;52.022;5.686;2023-07-28T08:56:52;24.50;99.90
48535;DHT22;34323;52.022;5.686;2023-07-28T08:59:25;24.40;99.90
48535;DHT22;34323;52.022;5.686;2023-07-28T09:01:56;24.50;99.90
48535;DHT22;34323;52.022;5.686;2023-07-28T09:04:22;24.20;99.90
48535;DHT22;34323;52.022;5.686;2023-07-28T09:06:48;24.20;99.90
48535;DHT22;34323;52.022;5.686;2023-07-28T09:09:15;24.50;99.90
48535;DHT22;34323;52.022;5.686;2023-07-28T09:11:45;24.60;99.90
48535;DHT22;34323;52.022;5.686;2023-07-28T09:14:12;24.60;99.90
48535;DHT22;34323;52.022;5.686;2023-07-28T09:16:38;24.50;99.90
48535;DHT22;34323;52.022;5.686;2023-07-28T09:19:07;24.90;99.90
48535;DHT22;34323;52.022;5.686;2023-07-28T09:21:33;25.30;99.90
48535;DHT22;34323;52.022;5.686;2023-07-28T09:24:06;25.40;99.90
48535;DHT22;34323;52.022;5.686;2023-07-28T09:26:43;25.30;99.90
48535;DHT22;34323;52.022;5.686;2023-07-28T09:29:17;25.50;99.90
48535;DHT22;34323;52.022;5.686;2023-07-28T09:31:44;25.50;99.90
48535;DHT22;34323;52.022;5.686;2023-07-28T09:34:11;25.70;99.90
48535;DHT22;34323;52.022;5.686;2023-07-28T09:36:37;25.80;99.90
48535;DHT22;34323;52.022;5.686;2023-07-28T09:39:06;25.90;99.90
48535;DHT22;34323;52.022;5.686;2023-07-28T09:41:35;26.00;99.90
48535;DHT22;34323;52.022;5.686;2023-07-28T09:44:02;25.50;99.90
48535;DHT22;34323;52.022;5.686;2023-07-28T09:46:29;25.20;99.90
48535;DHT22;34323;52.022;5.686;2023-07-28T09:48:59;25.00;99.90
48535;DHT22;34323;52.022;5.686;2023-07-28T09:51:30;25.10;99.90
48535;DHT22;34323;52.022;5.686;2023-07-28T09:54:00;25.00;99.90
48535;DHT22;34323;52.022;5.686;2023-07-28T09:56:29;25.20;99.90
48535;DHT22;34323;52.022;5.686;2023-07-28T09:58:56;25.40;99.90
48535;DHT22;34323;52.022;5.686;2023-07-28T10:01:23;25.50;99.90
48535;DHT22;34323;52.022;5.686;2023-07-28T10:03:49;25.40;99.90
48535;DHT22;34323;52.022;5.686;2023-07-28T10:06:17;25.60;99.90
48535;DHT22;34323;52.022;5.686;2023-07-28T10:08:43;25.70;99.90
48535;DHT22;34323;52.022;5.686;2023-07-28T10:11:11;25.70;99.90
48535;DHT22;34323;52.022;5.686;2023-07-28T10:13:42;25.80;99.90
48535;DHT22;34323;52.022;5.686;2023-07-28T10:16:08;26.00;99.90
48535;DHT22;34323;52.022;5.686;2023-07-28T10:18:37;26.40;99.90
48535;DHT22;34323;52.022;5.686;2023-07-28T10:21:10;26.60;99.90
48535;DHT22;34323;52.022;5.686;2023-07-28T10:23:40;26.40;99.90
48535;DHT22;34323;52.022;5.686;2023-07-28T10:26:06;26.20;99.90
48535;DHT22;34323;52.022;5.686;2023-07-28T10:28:37;26.30;99.90
48535;DHT22;34323;52.022;5.686;2023-07-28T10:31:10;26.70;99.90
48535;DHT22;34323;52.022;5.686;2023-07-28T10:33:38;27.10;99.90
48535;DHT22;34323;52.022;5.686;2023-07-28T10:36:33;26.90;99.90
48535;DHT22;34323;52.022;5.686;2023-07-28T10:39:02;27.20;99.90
48535;DHT22;34323;52.022;5.686;2023-07-28T10:41:37;27.50;99.90
48535;DHT22;34323;52.022;5.686;2023-07-28T10:44:03;27.30;99.90
48535;DHT22;34323;52.022;5.686;2023-07-28T10:46:29;27.10;99.90
48535;DHT22;34323;52.022;5.686;2023-07-28T10:48:54;27.00;99.90
48535;DHT22;34323;52.022;5.686;2023-07-28T10:51:25;27.20;99.90
48535;DHT22;34323;52.022;5.686;2023-07-28T10:54:00;26.90;99.90
48535;DHT22;34323;52.022;5.686;2023-07-28T10:56:28;26.60;99.90
48535;DHT22;34323;52.022;5.686;2023-07-28T10:58:57;26.90;99.90
48535;DHT22;34323;52.022;5.686;2023-07-28T11:01:39;27.00;99.90
48535;DHT22;34323;52.022;5.686;2023-07-28T11:04:10;26.50;99.90
48535;DHT22;34323;52.022;5.686;2023-07-28T11:06:44;26.30;99.90
48535;DHT22;34323;52.022;5.686;2023-07-28T11:09:10;26.80;99.90
48535;DHT22;34323;52.022;5.686;2023-07-28T11:11:40;27.30;99.90
48535;DHT22;34323;52.022;5.686;2023-07-28T11:14:07;27.20;99.90
48535;DHT22;34323;52.022;5.686;2023-07-28T11:16:35;27.50;99.90
48535;DHT22;34323;52.022;5.686;2023-07-28T11:19:02;27.60;99.90
48535;DHT22;34323;52.022;5.686;2023-07-28T11:21:28;27.40;99.90
48535;DHT22;34323;52.022;5.686;2023-07-28T11:23:54;27.70;99.90
48535;DHT22;34323;52.022;5.686;2023-07-28T11:26:20;27.90;99.90
48535;DHT22;34323;52.022;5.686;2023-07-28T11:28:48;27.90;99.90
48535;DHT22;34323;52.022;5.686;2023-07-28T11:31:13;27.80;99.90
48535;DHT22;34323;52.022;5.686;2023-07-28T11:33:39;28.00;99.90
48535;DHT22;34323;52.022;5.686;2023-07-28T11:36:05;27.40;99.90
48535;DHT22;34323;52.022;5.686;2023-07-28T11:38:32;27.20;99.90
48535;DHT22;34323;52.022;5.686;2023-07-28T11:40:59;27.60;99.90
48535;DHT22;34323;52.022;5.686;2023-07-28T11:43:25;27.80;99.90
48535;DHT22;34323;52.022;5.686;2023-07-28T11:45:51;28.20;99.90
48535;DHT22;34323;52.022;5.686;2023-07-28T11:48:16;28.70;99.90
48535;DHT22;34323;52.022;5.686;2023-07-28T11:50:43;28.40;99.90
48535;DHT22;34323;52.022;5.686;2023-07-28T11:53:10;28.30;99.90
48535;DHT22;34323;52.022;5.686;2023-07-28T11:55:37;28.20;99.90
48535;DHT22;34323;52.022;5.686;2023-07-28T11:58:07;28.60;99.90
48535;DHT22;34323;52.022;5.686;2023-07-28T12:00:39;29.10;99.90
48535;DHT22;34323;52.022;5.686;2023-07-28T12:03:09;28.50;99.90
48535;DHT22;34323;52.022;5.686;2023-07-28T12:05:35;27.90;99.90
48535;DHT22;34323;52.022;5.686;2023-07-28T12:08:02;28.00;99.90
48535;DHT22;34323;52.022;5.686;2023-07-28T12:10:28;27.80;99.90
48535;DHT22;34323;52.022;5.686;2023-07-28T12:12:54;28.00;99.90
48535;DHT22;34323;52.022;5.686;2023-07-28T12:20:34;28.80;99.90
48535;DHT22;34323;52.022;5.686;2023-07-28T12:23:00;28.90;99.90
48535;DHT22;34323;52.022;5.686;2023-07-28T12:25:25;29.30;99.90
48535;DHT22;34323;52.022;5.686;2023-07-28T12:27:51;29.50;99.90
48535;DHT22;34323;52.022;5.686;2023-07-28T12:30:17;29.60;99.90
48535;DHT22;34323;52.022;5.686;2023-07-28T12:32:43;29.50;99.90
48535;DHT22;34323;52.022;5.686;2023-07-28T12:35:08;29.00;99.90
48535;DHT22;34323;52.022;5.686;2023-07-28T12:37:34;28.50;99.90
48535;DHT22;34323;52.022;5.686;2023-07-28T12:39:59;28.30;99.90
48535;DHT22;34323;52.022;5.686;2023-07-28T12:42:26;28.20;99.90
48535;DHT22;34323;52.022;5.686;2023-07-28T12:44:52;28.70;99.90
48535;DHT22;34323;52.022;5.686;2023-07-28T12:47:17;29.30;99.90
48535;DHT22;34323;52.022;5.686;2023-07-28T12:49:43;29.30;99.90
48535;DHT22;34323;52.022;5.686;2023-07-28T12:52:08;28.90;99.90
48535;DHT22;34323;52.022;5.686;2023-07-28T12:54:34;28.90;99.90
48535;DHT22;34323;52.022;5.686;2023-07-28T12:57:00;29.30;99.90
48535;DHT22;34323;52.022;5.686;2023-07-28T12:59:26;29.80;99.90
48535;DHT22;34323;52.022;5.686;2023-07-28T13:01:53;30.10;99.90
48535;DHT22;34323;52.022;5.686;2023-07-28T13:04:19;30.00;99.90
48535;DHT22;34323;52.022;5.686;2023-07-28T13:06:44;30.10;99.90
48535;DHT22;34323;52.022;5.686;2023-07-28T13:09:10;30.20;99.90
48535;DHT22;34323;52.022;5.686;2023-07-28T13:11:35;30.30;99.90
48535;DHT22;34323;52.022;5.686;2023-07-28T13:14:02;30.50;99.90
48535;DHT22;34323;52.022;5.686;2023-07-28T13:16:27;30.80;99.90
48535;DHT22;34323;52.022;5.686;2023-07-28T13:18:53;30.50;99.90
48535;DHT22;34323;52.022;5.686;2023-07-28T13:21:18;30.40;99.90
48535;DHT22;34323;52.022;5.686;2023-07-28T13:23:44;30.50;99.90
48535;DHT22;34323;52.022;5.686;2023-07-28T13:26:09;30.40;99.90
48535;DHT22;34323;52.022;5.686;2023-07-28T13:28:35;30.00;99.90
48535;DHT22;34323;52.022;5.686;2023-07-28T13:31:02;30.00;99.90
48535;DHT22;34323;52.022;5.686;2023-07-28T13:33:28;30.70;99.90
48535;DHT22;34323;52.022;5.686;2023-07-28T13:35:53;31.40;99.90
48535;DHT22;34323;52.022;5.686;2023-07-28T13:38:19;32.00;99.90
48535;DHT22;34323;52.022;5.686;2023-07-28T13:40:44;31.50;99.90
48535;DHT22;34323;52.022;5.686;2023-07-28T13:43:10;31.30;99.90
48535;DHT22;34323;52.022;5.686;2023-07-28T13:45:36;31.50;99.90
48535;DHT22;34323;52.022;5.686;2023-07-28T13:48:02;31.90;99.90
48535;DHT22;34323;52.022;5.686;2023-07-28T13:50:27;32.90;99.90
48535;DHT22;34323;52.022;5.686;2023-07-28T13:52:53;33.30;99.90
48535;DHT22;34323;52.022;5.686;2023-07-28T13:55:18;32.60;99.90
48535;DHT22;34323;52.022;5.686;2023-07-28T13:57:44;32.70;99.90
48535;DHT22;34323;52.022;5.686;2023-07-28T14:00:10;33.10;99.90
48535;DHT22;34323;52.022;5.686;2023-07-28T14:02:37;33.20;99.90
48535;DHT22;34323;52.022;5.686;2023-07-28T14:05:03;33.30;99.90
48535;DHT22;34323;52.022;5.686;2023-07-28T14:07:28;34.00;99.90
48535;DHT22;34323;52.022;5.686;2023-07-28T14:09:54;34.10;99.90
48535;DHT22;34323;52.022;5.686;2023-07-28T14:12:20;33.70;99.90
48535;DHT22;34323;52.022;5.686;2023-07-28T14:14:45;34.50;99.90
48535;DHT22;34323;52.022;5.686;2023-07-28T14:17:11;34.50;99.90
48535;DHT22;34323;52.022;5.686;2023-07-28T14:19:38;33.90;99.90
48535;DHT22;34323;52.022;5.686;2023-07-28T14:22:04;34.50;99.90
48535;DHT22;34323;52.022;5.686;2023-07-28T14:24:30;35.20;99.90
48535;DHT22;34323;52.022;5.686;2023-07-28T14:26:55;35.10;99.90
48535;DHT22;34323;52.022;5.686;2023-07-28T14:29:21;34.30;99.90
48535;DHT22;34323;52.022;5.686;2023-07-28T14:31:47;34.40;99.90
48535;DHT22;34323;52.022;5.686;2023-07-28T14:34:12;34.90;99.90
48535;DHT22;34323;52.022;5.686;2023-07-28T14:36:38;35.80;99.90
48535;DHT22;34323;52.022;5.686;2023-07-28T14:39:04;35.90;99.90
48535;DHT22;34323;52.022;5.686;2023-07-28T14:41:30;35.80;99.90
48535;DHT22;34323;52.022;5.686;2023-07-28T14:43:55;36.40;99.90
48535;DHT22;34323;52.022;5.686;2023-07-28T14:46:21;36.80;99.90
48535;DHT22;34323;52.022;5.686;2023-07-28T14:48:50;37.40;99.90
48535;DHT22;34323;52.022;5.686;2023-07-28T14:51:16;37.70;99.90
48535;DHT22;34323;52.022;5.686;2023-07-28T14:53:42;37.80;99.90
48535;DHT22;34323;52.022;5.686;2023-07-28T14:56:08;37.30;99.90
48535;DHT22;34323;52.022;5.686;2023-07-28T14:58:34;36.50;99.90
48535;DHT22;34323;52.022;5.686;2023-07-28T15:00:59;35.10;99.90
48535;DHT22;34323;52.022;5.686;2023-07-28T15:03:27;34.60;99.90
48535;DHT22;34323;52.022;5.686;2023-07-28T15:05:56;34.00;99.90
48535;DHT22;34323;52.022;5.686;2023-07-28T15:08:22;34.20;99.90
48535;DHT22;34323;52.022;5.686;2023-07-28T15:10:48;33.70;99.90
48535;DHT22;34323;52.022;5.686;2023-07-28T15:13:13;33.40;99.90
48535;DHT22;34323;52.022;5.686;2023-07-28T15:15:39;32.80;99.90
48535;DHT22;34323;52.022;5.686;2023-07-28T15:18:05;32.10;99.90
48535;DHT22;34323;52.022;5.686;2023-07-28T15:20:30;31.30;99.90
48535;DHT22;34323;52.022;5.686;2023-07-28T15:22:56;31.30;99.90
48535;DHT22;34323;52.022;5.686;2023-07-28T15:25:21;31.30;99.90
48535;DHT22;34323;52.022;5.686;2023-07-28T15:27:47;31.30;99.90
48535;DHT22;34323;52.022;5.686;2023-07-28T15:30:12;31.30;99.90
48535;DHT22;34323;52.022;5.686;2023-07-28T15:32:38;31.00;99.90